Time;durP1;ratioP1;P1;durP2;ratioP2;P2;SDS_P1;SDS_P2;PMS_P1;PMS_P2;Temp;Humidity;BMP_temperature;BMP_pressure;BME280_temperature;BME280_humidity;BME280_pressure;Samples;Min_cycle;Max_cycle;Signal;HPM_P1;HPM_P2
2022/10/15 00:01:21;;;;;;;;;4.00;4.00;;;;;17.78;100.00;100697.31;5058733;28;46156;-72
2022/10/15 00:03:46;;;;;;;;;4.67;4.67;;;;;17.80;100.00;100697.28;5058401;28;45471;-72
2022/10/15 00:06:15;;;;;;;;;4.33;4.33;;;;;17.79;100.00;100690.19;5058363;28;58093;-71
2022/10/15 00:08:40;;;;;;;;;5.00;4.00;;;;;17.77;100.00;100682.19;5021214;28;45599;-71
2022/10/15 00:11:11;;;;;;;;;4.00;4.00;;;;;17.79;100.00;100682.19;5050165;28;46101;-71
2022/10/15 00:13:37;;;;;;;;;6.00;6.00;;;;;17.79;100.00;100687.53;5050115;28;45407;-71
2022/10/15 00:16:03;;;;;;;;;7.67;7.67;;;;;17.76;100.00;100680.44;5042374;28;45574;-71
2022/10/15 00:18:29;;;;;;;;;11.33;9.33;;;;;17.76;100.00;100685.78;5027436;28;45573;-71
2022/10/15 00:20:54;;;;;;;;;9.67;8.00;;;;;17.78;100.00;100689.28;5051226;28;67846;-71
2022/10/15 00:23:20;;;;;;;;;7.00;6.00;;;;;17.76;100.00;100680.44;5057454;28;59819;-71
2022/10/15 00:25:45;;;;;;;;;6.00;6.00;;;;;17.79;100.00;100691.06;5058750;28;45277;-72
2022/10/15 00:28:11;;;;;;;;;6.67;6.67;;;;;17.76;100.00;100674.22;5058792;28;45326;-71
2022/10/15 00:30:36;;;;;;;;;15.00;12.33;;;;;17.77;100.00;100678.66;5051203;28;65776;-71
2022/10/15 00:33:01;;;;;;;;;15.00;14.00;;;;;17.78;100.00;100678.59;5058785;28;45384;-71
2022/10/15 00:35:27;;;;;;;;;24.67;18.00;;;;;17.76;100.00;100667.09;5040566;28;45440;-72
2022/10/15 00:37:52;;;;;;;;;23.67;20.00;;;;;17.79;100.00;100676.84;5058263;28;53821;-71
2022/10/15 00:40:18;;;;;;;;;19.33;15.67;;;;;17.76;100.00;100675.09;5056986;28;64582;-71
2022/10/15 00:42:44;;;;;;;;;16.67;15.67;;;;;17.76;100.00;100669.75;5057910;28;45502;-71
2022/10/15 00:45:14;;;;;;;;;18.00;15.00;;;;;17.78;100.00;100673.25;5038805;28;45244;-71
2022/10/15 00:47:45;;;;;;;;;14.33;14.33;;;;;17.76;100.00;100661.75;5053494;28;45706;-72
2022/10/15 00:50:17;;;;;;;;;13.33;12.67;;;;;17.79;100.00;100664.38;5039369;28;47750;-72
2022/10/15 00:52:56;;;;;;;;;11.00;10.67;;;;;17.80;100.00;100667.91;5047246;28;45483;-71
2022/10/15 00:55:37;;;;;;;;;8.67;8.67;;;;;17.81;100.00;100658.97;5040209;28;45265;-71
2022/10/15 00:58:17;;;;;;;;;9.33;8.33;;;;;17.78;100.00;100649.22;5057770;28;45306;-71
2022/10/15 01:00:42;;;;;;;;;8.00;5.67;;;;;17.81;100.00;100637.63;5038131;28;45401;-71
2022/10/15 01:03:08;;;;;;;;;9.67;8.00;;;;;17.79;100.00;100628.75;5056416;28;67410;-71
2022/10/15 01:05:34;;;;;;;;;7.67;6.00;;;;;17.82;100.00;100636.69;5037562;28;45702;-71
2022/10/15 01:08:00;;;;;;;;;6.67;6.67;;;;;17.83;100.00;100633.09;5037364;28;45546;-71
2022/10/15 01:10:33;;;;;;;;;6.00;4.33;;;;;17.83;100.00;100633.09;5051245;28;67147;-71
2022/10/15 01:13:33;;;;;;;;;6.33;6.33;;;;;17.82;100.00;100622.47;5058065;28;45423;-71
2022/10/15 01:16:33;;;;;;;;;6.33;5.00;;;;;17.83;100.00;100619.75;5054898;28;45586;-71
2022/10/15 01:19:05;;;;;;;;;6.33;5.00;;;;;17.79;100.00;100618.97;4980779;28;45794;-71
2022/10/15 01:21:38;;;;;;;;;6.67;5.00;;;;;17.82;100.00;100620.66;5038241;28;45645;-71
2022/10/15 01:24:20;;;;;;;;;5.33;4.67;;;;;17.81;100.00;100610.91;5058634;28;45588;-71
2022/10/15 01:27:03;;;;;;;;;5.00;4.67;;;;;17.82;100.00;100603.75;5047833;28;45354;-71
2022/10/15 01:29:47;;;;;;;;;5.33;5.33;;;;;17.84;100.00;100612.63;5043872;28;45638;-71
2022/10/15 01:32:18;;;;;;;;;4.00;4.00;;;;;17.83;100.00;100610.88;5047803;28;46971;-71
2022/10/15 01:34:43;;;;;;;;;3.00;3.00;;;;;17.83;100.00;100605.53;5055267;28;45461;-71
2022/10/15 01:37:18;;;;;;;;;3.67;3.67;;;;;17.80;100.00;100588.66;5057125;28;45456;-72
2022/10/15 01:39:49;;;;;;;;;2.67;2.67;;;;;17.81;100.00;100586.88;5038761;28;45535;-71
2022/10/15 01:42:26;;;;;;;;;2.67;2.67;;;;;17.79;100.00;100578.03;5039160;28;45484;-72
2022/10/15 01:44:57;;;;;;;;;1.67;1.00;;;;;17.76;100.00;100572.75;5055717;28;45907;-71
2022/10/15 01:47:31;;;;;;;;;3.67;3.67;;;;;17.79;100.00;100570.00;5057498;28;45382;-71
2022/10/15 01:49:59;;;;;;;;;3.00;3.00;;;;;17.76;100.00;100573.63;5038832;28;45306;-72
2022/10/15 01:52:28;;;;;;;;;3.00;1.00;;;;;17.76;100.00;100568.28;5035237;28;46555;-71
2022/10/15 01:54:54;;;;;;;;;1.00;1.00;;;;;17.75;100.00;100569.19;5035492;28;45291;-71
2022/10/15 01:57:21;;;;;;;;;2.00;2.00;;;;;17.76;100.00;100562.94;5038101;28;60412;-71
2022/10/15 01:59:46;;;;;;;;;4.33;3.00;;;;;17.76;100.00;100549.56;5057108;28;45587;-71
2022/10/15 02:02:12;;;;;;;;;2.00;2.00;;;;;17.76;100.00;100548.69;5052469;28;46021;-71
2022/10/15 02:04:38;;;;;;;;;3.33;3.33;;;;;17.75;100.00;100539.81;5057092;28;45244;-71
2022/10/15 02:07:29;;;;;;;;;3.00;3.00;;;;;17.77;100.00;100534.44;5057310;28;45494;-71
2022/10/15 02:10:12;;;;;;;;;3.67;3.00;;;;;17.77;100.00;100535.31;5031525;28;45581;-71
2022/10/15 02:13:07;;;;;;;;;2.00;2.00;;;;;17.80;100.00;100521.03;5026428;28;46749;-71
2022/10/15 02:15:36;;;;;;;;;4.00;2.00;;;;;17.80;100.00;100521.03;4986430;28;45531;-72
2022/10/15 02:18:04;;;;;;;;;3.33;2.33;;;;;17.79;100.00;100522.81;5034532;28;45788;-72
2022/10/15 02:20:43;;;;;;;;;2.00;2.00;;;;;17.77;100.00;100505.94;5047032;28;45463;-71
2022/10/15 02:23:13;;;;;;;;;2.00;2.00;;;;;17.79;100.00;100512.13;5057852;28;45277;-71
2022/10/15 02:25:39;;;;;;;;;2.33;2.33;;;;;17.76;100.00;100503.31;5038226;28;45492;-71
2022/10/15 02:28:06;;;;;;;;;3.00;2.00;;;;;17.79;100.00;100497.91;5035169;28;57128;-72
2022/10/15 02:30:33;;;;;;;;;2.67;2.67;;;;;17.76;100.00;100489.94;5025992;28;45400;-71
2022/10/15 02:32:59;;;;;;;;;3.00;3.00;;;;;17.77;100.00;100478.34;5050346;28;46764;-71
2022/10/15 02:35:25;;;;;;;;;1.00;1.00;;;;;17.76;100.00;100466.78;5038437;28;45376;-71
2022/10/15 02:37:53;;;;;;;;;2.00;2.00;;;;;17.77;100.00;100470.34;5025147;28;45362;-71
2022/10/15 02:40:26;;;;;;;;;1.00;1.00;;;;;17.75;100.00;100449.00;5027597;28;45615;-70
2022/10/15 02:42:51;;;;;;;;;2.00;2.00;;;;;17.78;100.00;100454.25;5037978;28;47361;-71
2022/10/15 02:45:17;;;;;;;;;3.00;1.67;;;;;17.76;100.00;100440.09;5056270;28;45459;-71
2022/10/15 02:47:42;;;;;;;;;1.00;1.00;;;;;17.79;100.00;100445.38;5056631;28;45553;-71
2022/10/15 02:50:08;;;;;;;;;1.00;1.00;;;;;17.77;100.00;100436.50;5055226;28;57053;-71
2022/10/15 02:52:33;;;;;;;;;5.00;2.00;;;;;17.81;100.00;100448.00;5056320;28;46473;-71
2022/10/15 02:54:58;;;;;;;;;2.00;2.00;;;;;17.83;100.00;100447.94;5054234;28;63911;-70
2022/10/15 02:57:24;;;;;;;;;4.00;3.00;;;;;17.84;100.00;100439.00;5037730;28;58114;-71
2022/10/15 02:59:49;;;;;;;;;3.00;3.00;;;;;17.85;100.00;100446.13;5055558;28;63387;-72
2022/10/15 03:02:14;;;;;;;;;2.33;2.33;;;;;17.86;100.00;100434.53;5055620;28;45666;-71
2022/10/15 03:04:40;;;;;;;;;2.00;2.00;;;;;17.87;100.00;100430.94;5055070;28;64795;-71
2022/10/15 03:07:05;;;;;;;;;3.00;2.00;;;;;17.85;100.00;100425.63;5045802;28;57916;-71
2022/10/15 03:09:30;;;;;;;;;4.00;2.00;;;;;17.87;100.00;100425.59;5053431;28;58839;-71
2022/10/15 03:11:56;;;;;;;;;3.00;3.00;;;;;17.87;100.00;100423.78;5036990;28;65162;-71
2022/10/15 03:14:21;;;;;;;;;4.00;4.00;;;;;17.89;100.00;100419.28;5056331;28;62054;-71
2022/10/15 03:16:46;;;;;;;;;2.00;2.00;;;;;17.90;100.00;100406.81;5057641;28;61717;-72
2022/10/15 03:19:12;;;;;;;;;2.00;2.00;;;;;17.90;100.00;100410.38;5057369;28;53114;-71
2022/10/15 03:21:37;;;;;;;;;1.67;1.67;;;;;17.90;100.00;100399.69;5054998;28;63840;-71
2022/10/15 03:24:02;;;;;;;;;2.67;2.00;;;;;17.91;100.00;100406.78;5053949;28;63698;-71
2022/10/15 03:26:28;;;;;;;;;1.00;1.00;;;;;17.90;100.00;100388.13;5038228;28;45660;-71
2022/10/15 03:28:53;;;;;;;;;2.00;2.00;;;;;17.91;100.00;100387.22;5037678;28;45447;-71
2022/10/15 03:31:19;;;;;;;;;1.00;1.00;;;;;17.91;100.00;100379.19;5055736;28;45867;-71
2022/10/15 03:33:44;;;;;;;;;1.00;1.00;;;;;17.94;100.00;100377.28;5055123;28;45365;-71
2022/10/15 03:36:10;;;;;;;;;1.00;1.00;;;;;17.94;100.00;100379.97;5054864;28;45416;-71
2022/10/15 03:38:35;;;;;;;;;1.00;1.00;;;;;17.93;100.00;100372.88;5055645;28;49481;-71
2022/10/15 03:41:00;;;;;;;;;0.00;0.00;;;;;17.96;100.00;100366.59;5036638;28;68085;-71
2022/10/15 03:43:26;;;;;;;;;1.00;1.00;;;;;17.95;100.00;100364.81;5056069;28;45478;-72
2022/10/15 03:45:51;;;;;;;;;0.00;0.00;;;;;17.99;100.00;100369.16;5055066;28;61101;-71
2022/10/15 03:48:17;;;;;;;;;1.00;0.00;;;;;18.00;100.00;100366.47;5056191;28;45233;-71
2022/10/15 03:50:44;;;;;;;;;0.00;0.00;;;;;17.99;100.00;100346.00;5054879;28;45873;-72
2022/10/15 03:53:09;;;;;;;;;0.00;0.00;;;;;18.01;100.00;100354.00;5053456;28;45578;-71
2022/10/15 03:55:35;;;;;;;;;0.00;0.00;;;;;18.03;100.00;100360.16;5054627;28;57471;-71
2022/10/15 03:58:00;;;;;;;;;0.00;0.00;;;;;18.03;100.00;100353.00;5054835;28;56130;-72
2022/10/15 04:00:26;;;;;;;;;0.00;0.00;;;;;18.02;100.00;100339.72;5053501;28;47623;-72
2022/10/15 04:02:51;;;;;;;;;2.67;0.00;;;;;18.02;100.00;100334.38;5034196;28;45306;-72
2022/10/15 04:05:16;;;;;;;;;0.00;0.00;;;;;18.03;100.00;100338.78;5053171;28;59879;-72
2022/10/15 04:07:42;;;;;;;;;0.00;0.00;;;;;18.06;100.00;100328.03;5055009;28;58075;-71
2022/10/15 04:10:07;;;;;;;;;0.00;0.00;;;;;18.06;100.00;100330.69;5036647;28;64275;-71
2022/10/15 04:12:33;;;;;;;;;0.00;0.00;;;;;18.06;100.00;100336.91;5049585;28;45424;-72
2022/10/15 04:14:58;;;;;;;;;0.00;0.00;;;;;18.06;100.00;100336.03;5055024;28;45342;-72
2022/10/15 04:17:23;;;;;;;;;0.00;0.00;;;;;18.04;100.00;100327.16;5056603;28;61903;-71
2022/10/15 04:19:49;;;;;;;;;1.00;0.00;;;;;18.04;100.00;100321.81;5056491;28;45853;-72
2022/10/15 04:22:14;;;;;;;;;0.00;0.00;;;;;18.04;100.00;100322.69;5054489;28;66135;-71
2022/10/15 04:24:39;;;;;;;;;1.00;0.00;;;;;18.02;100.00;100321.00;5027812;28;61154;-72
2022/10/15 04:27:05;;;;;;;;;0.00;0.00;;;;;18.02;100.00;100311.19;5054557;28;62259;-71
2022/10/15 04:29:30;;;;;;;;;1.33;0.00;;;;;18.04;100.00;100317.34;5048093;28;46028;-72
2022/10/15 04:31:56;;;;;;;;;0.00;0.00;;;;;18.02;100.00;100316.53;5049100;28;50724;-72
2022/10/15 04:34:21;;;;;;;;;0.00;0.00;;;;;18.05;100.00;100318.22;5051467;28;45419;-71
2022/10/15 04:36:46;;;;;;;;;2.00;0.33;;;;;18.06;100.00;100317.34;5057508;28;55467;-72
2022/10/15 04:39:12;;;;;;;;;1.00;0.00;;;;;18.05;100.00;100316.44;5057539;28;64680;-70
2022/10/15 04:41:37;;;;;;;;;0.00;0.00;;;;;18.05;100.00;100323.56;5057823;28;45277;-71
2022/10/15 04:44:02;;;;;;;;;0.00;0.00;;;;;18.05;100.00;100326.25;5058947;28;58648;-72
2022/10/15 04:46:28;;;;;;;;;0.67;0.67;;;;;18.09;100.00;100329.72;5059777;28;45487;-71
2022/10/15 04:48:56;;;;;;;;;1.00;0.00;;;;;18.08;100.00;100328.84;5058353;28;45866;-71
2022/10/15 04:51:22;;;;;;;;;1.00;0.00;;;;;18.11;100.00;100335.88;5051417;28;45531;-71
2022/10/15 04:53:48;;;;;;;;;0.00;0.00;;;;;18.12;100.00;100340.34;5058247;28;45574;-72
2022/10/15 04:56:16;;;;;;;;;0.00;0.00;;;;;18.13;100.00;100337.59;5057621;28;62940;-72
2022/10/15 04:58:43;;;;;;;;;0.00;0.00;;;;;18.15;100.00;100338.44;5032005;28;47623;-72
2022/10/15 05:01:11;;;;;;;;;1.00;1.00;;;;;18.13;100.00;100342.09;5058125;28;45547;-71
2022/10/15 05:03:38;;;;;;;;;0.00;0.00;;;;;18.14;100.00;100339.34;5058071;28;45292;-71
2022/10/15 05:06:12;;;;;;;;;0.00;0.00;;;;;18.15;100.00;100342.91;5058588;28;45590;-72
2022/10/15 05:08:42;;;;;;;;;0.00;0.00;;;;;18.15;100.00;100337.56;5057388;28;46156;-72
2022/10/15 05:11:13;;;;;;;;;1.00;1.00;;;;;18.17;100.00;100339.28;5052157;28;45363;-72
2022/10/15 05:13:38;;;;;;;;;0.00;0.00;;;;;18.18;100.00;100345.50;5057700;28;45376;-72
2022/10/15 05:16:08;;;;;;;;;0.00;0.00;;;;;18.17;100.00;100339.28;5038323;28;45474;-71
2022/10/15 05:18:34;;;;;;;;;2.00;1.00;;;;;18.16;100.00;100332.16;5058689;28;46019;-72
2022/10/15 05:21:02;;;;;;;;;0.00;0.00;;;;;18.21;100.00;100332.91;5051507;28;45479;-71
2022/10/15 05:23:28;;;;;;;;;0.33;0.00;;;;;18.21;100.00;100337.38;5058826;28;45436;-72
2022/10/15 05:25:53;;;;;;;;;0.00;0.00;;;;;18.19;100.00;100332.09;5056067;28;52214;-71
2022/10/15 05:28:18;;;;;;;;;1.67;0.00;;;;;18.19;100.00;100332.09;5057462;28;46427;-71
2022/10/15 05:30:44;;;;;;;;;0.00;0.00;;;;;18.18;100.00;100330.34;5056409;28;68170;-72
2022/10/15 05:33:10;;;;;;;;;0.00;0.00;;;;;18.20;100.00;100332.97;5057693;28;45395;-72
2022/10/15 05:35:36;;;;;;;;;1.67;0.00;;;;;18.19;100.00;100332.09;5057201;28;45392;-72
2022/10/15 05:38:03;;;;;;;;;0.00;0.00;;;;;18.22;100.00;100340.03;5057470;28;45661;-72
2022/10/15 05:40:28;;;;;;;;;0.00;0.00;;;;;18.22;100.00;100334.69;5057412;28;45558;-72
2022/10/15 05:42:53;;;;;;;;;0.00;0.00;;;;;18.24;100.00;100330.16;5055638;28;61637;-72
2022/10/15 05:45:18;;;;;;;;;0.00;0.00;;;;;18.26;100.00;100333.66;5055908;28;61498;-71
2022/10/15 05:47:44;;;;;;;;;2.00;0.00;;;;;18.28;100.00;100321.16;5048006;28;66652;-72
2022/10/15 05:50:09;;;;;;;;;0.00;0.00;;;;;18.29;100.00;100341.59;5055097;28;63163;-71
2022/10/15 05:52:35;;;;;;;;;0.00;0.00;;;;;18.30;100.00;100329.09;5057504;28;45368;-72
2022/10/15 05:55:00;;;;;;;;;0.00;0.00;;;;;18.30;100.00;100332.66;5050272;28;45612;-71
2022/10/15 05:57:25;;;;;;;;;0.00;0.00;;;;;18.29;100.00;100324.69;5056123;28;63586;-71
2022/10/15 05:59:50;;;;;;;;;0.00;0.00;;;;;18.29;100.00;100327.38;5050315;28;58101;-72
2022/10/15 06:02:16;;;;;;;;;0.00;0.00;;;;;18.29;100.00;100322.88;5057490;28;45416;-71
2022/10/15 06:04:42;;;;;;;;;0.00;0.00;;;;;18.32;100.00;100327.25;5057774;28;45386;-72
2022/10/15 06:07:07;;;;;;;;;0.00;0.00;;;;;18.32;100.00;100332.59;5046093;28;46745;-72
2022/10/15 06:09:33;;;;;;;;;0.00;0.00;;;;;18.33;100.00;100329.91;5021885;28;45419;-72
2022/10/15 06:11:58;;;;;;;;;0.00;0.00;;;;;18.36;100.00;100328.94;5166186;22;58917;-70
2022/10/15 06:14:24;;;;;;;;;0.00;0.00;;;;;18.38;100.00;100329.78;5036591;28;56948;-71
2022/10/15 06:16:49;;;;;;;;;0.00;0.00;;;;;18.38;100.00;100332.44;5039631;28;45627;-71
2022/10/15 06:19:15;;;;;;;;;0.00;0.00;;;;;18.39;100.00;100334.19;5037169;28;45400;-70
2022/10/15 06:21:40;;;;;;;;;0.00;0.00;;;;;18.38;100.00;100328.91;5037006;28;45473;-70
2022/10/15 06:24:06;;;;;;;;;0.00;0.00;;;;;18.37;100.00;100336.03;5036230;28;59800;-70
2022/10/15 06:26:31;;;;;;;;;0.67;0.00;;;;;18.39;100.00;100330.66;5036366;28;59674;-70
2022/10/15 06:28:58;;;;;;;;;0.00;0.00;;;;;18.40;100.00;100335.94;5039119;28;62769;-70
2022/10/15 06:31:23;;;;;;;;;0.00;0.00;;;;;18.39;100.00;100336.00;5037126;28;45408;-70
2022/10/15 06:33:49;;;;;;;;;0.00;0.00;;;;;18.38;100.00;100343.16;5036686;28;45400;-70
2022/10/15 06:36:14;;;;;;;;;2.00;0.00;;;;;18.41;100.00;100337.69;5036225;28;63684;-70
2022/10/15 06:38:42;;;;;;;;;0.00;0.00;;;;;18.42;100.00;100346.59;5036990;28;45399;-70
2022/10/15 06:41:08;;;;;;;;;0.00;0.00;;;;;18.42;100.00;100349.25;5036890;28;45263;-71
2022/10/15 06:43:33;;;;;;;;;0.00;0.00;;;;;18.42;100.00;100344.78;5037165;28;45401;-70
2022/10/15 06:45:59;;;;;;;;;0.00;0.00;;;;;18.41;100.00;100339.50;5018974;28;45985;-71
2022/10/15 06:48:25;;;;;;;;;0.00;0.00;;;;;18.43;100.00;100340.31;5021373;28;45292;-70
2022/10/15 06:50:50;;;;;;;;;1.00;0.00;;;;;18.42;100.00;100350.13;5034920;28;59929;-70
2022/10/15 06:53:15;;;;;;;;;1.33;0.00;;;;;18.44;100.00;100355.47;5036418;28;45206;-71
2022/10/15 06:55:41;;;;;;;;;0.00;0.00;;;;;18.46;100.00;100353.59;5031044;28;53729;-70
2022/10/15 06:58:06;;;;;;;;;0.67;0.67;;;;;18.48;100.00;100357.09;5036522;28;45314;-70
2022/10/15 07:00:31;;;;;;;;;1.00;1.00;;;;;18.48;100.00;100359.75;5035846;28;45396;-71
2022/10/15 07:03:05;;;;;;;;;0.00;0.00;;;;;18.51;100.00;100354.34;5035778;28;61827;-70
2022/10/15 07:05:30;;;;;;;;;0.00;0.00;;;;;18.52;100.00;100356.09;5018036;28;47550;-70
2022/10/15 07:07:56;;;;;;;;;0.00;0.00;;;;;18.54;100.00;100356.94;5035245;28;45445;-70
2022/10/15 07:10:22;;;;;;;;;0.00;0.00;;;;;18.55;100.00;100354.22;5036438;28;45229;-71
2022/10/15 07:12:47;;;;;;;;;0.00;0.00;;;;;18.60;100.00;100359.44;5047764;28;45264;-71
2022/10/15 07:15:13;;;;;;;;;0.00;0.00;;;;;18.59;100.00;100355.88;5055819;28;45591;-71
2022/10/15 07:17:39;;;;;;;;;0.00;0.00;;;;;18.64;100.00;100365.53;5055858;28;45355;-70
2022/10/15 07:20:05;;;;;;;;;0.00;0.00;;;;;18.67;100.00;100371.69;5055776;28;45331;-71
2022/10/15 07:22:31;;;;;;;;;0.00;0.00;;;;;18.74;100.00;100377.75;5055651;28;45549;-71
2022/10/15 07:24:56;;;;;;;;;0.00;0.00;;;;;18.80;100.00;100380.25;5055563;28;45430;-70
2022/10/15 07:27:21;;;;;;;;;0.00;0.00;;;;;18.83;100.00;100380.16;5054177;28;49565;-69
2022/10/15 07:29:47;;;;;;;;;0.00;0.00;;;;;18.88;100.00;100380.91;5018677;28;45489;-70
2022/10/15 07:32:12;;;;;;;;;0.00;0.00;;;;;18.91;100.00;100387.94;5036471;28;58596;-70
2022/10/15 07:34:37;;;;;;;;;0.00;0.00;;;;;18.91;100.00;100380.81;5045747;28;56383;-70
2022/10/15 07:37:03;;;;;;;;;0.00;0.00;;;;;18.90;100.00;100389.75;5049548;28;64796;-70
2022/10/15 07:39:28;;;;;;;;;1.00;0.00;;;;;18.90;100.00;100388.88;5052266;28;51535;-70
2022/10/15 07:41:53;;;;;;;;;0.00;0.00;;;;;18.92;100.00;100397.75;5055242;28;45733;-70
2022/10/15 07:44:19;;;;;;;;;1.00;0.00;;;;;18.92;100.00;100397.75;5051710;28;54395;-70
2022/10/15 07:46:46;;;;;;;;;0.00;0.00;;;;;18.89;100.00;100396.03;5053973;28;62218;-70
2022/10/15 07:49:11;;;;;;;;;0.00;0.00;;;;;18.90;100.00;100402.25;5037459;28;45337;-70
2022/10/15 07:51:36;;;;;;;;;0.00;0.00;;;;;18.89;100.00;100411.22;5053769;28;45474;-71
2022/10/15 07:54:02;;;;;;;;;0.00;0.00;;;;;18.89;100.00;100414.75;5051129;28;63551;-71
2022/10/15 07:56:27;;;;;;;;;0.00;0.00;;;;;18.90;100.00;100410.28;5051782;28;60367;-70
2022/10/15 07:58:52;;;;;;;;;0.00;0.00;;;;;18.87;100.00;100410.38;5052808;28;57829;-70
2022/10/15 08:01:20;;;;;;;;;0.00;0.00;;;;;18.88;100.00;100417.47;5054044;28;45443;-70
2022/10/15 08:03:45;;;;;;;;;0.00;0.00;;;;;18.82;100.00;100408.72;5054014;28;46830;-70
2022/10/15 08:06:10;;;;;;;;;0.00;0.00;;;;;18.80;100.00;100409.66;5054128;28;65092;-70
2022/10/15 08:08:36;;;;;;;;;0.00;0.00;;;;;18.76;100.00;100416.94;5054229;28;57255;-70
2022/10/15 08:11:13;;;;;;;;;0.00;0.00;;;;;18.73;100.00;100419.69;5058933;28;45325;-70
2022/10/15 08:13:41;;;;;;;;;0.00;0.00;;;;;18.68;100.00;100413.59;5040179;28;47397;-70
2022/10/15 08:16:09;;;;;;;;;0.00;0.00;;;;;18.68;100.00;100426.09;5034041;28;45432;-70
2022/10/15 08:18:36;;;;;;;;;0.00;0.00;;;;;18.67;100.00;100437.69;5056768;28;45813;-70
2022/10/15 08:21:02;;;;;;;;;0.00;0.00;;;;;18.64;100.00;100433.28;5064700;28;45541;-70
2022/10/15 08:23:27;;;;;;;;;0.00;0.00;;;;;18.58;100.00;100418.28;5058548;28;45771;-70
2022/10/15 08:25:52;;;;;;;;;0.00;0.00;;;;;18.57;100.00;100421.88;5057741;28;45221;-70
2022/10/15 08:28:18;;;;;;;;;0.00;0.00;;;;;18.56;100.00;100424.59;5057289;28;45546;-71
2022/10/15 08:30:43;;;;;;;;;0.00;0.00;;;;;18.55;100.00;100420.19;5057544;28;56387;-70
2022/10/15 08:33:09;;;;;;;;;0.00;0.00;;;;;18.56;100.00;100427.28;5054349;28;67612;-70
2022/10/15 08:35:37;;;;;;;;;0.00;0.00;;;;;18.56;100.00;100429.97;5054710;28;45360;-70
2022/10/15 08:38:03;;;;;;;;;0.00;0.00;;;;;18.57;100.00;100435.25;5057771;28;45553;-71
2022/10/15 08:40:28;;;;;;;;;1.00;0.00;;;;;18.59;100.00;100429.88;5058058;28;46611;-70
2022/10/15 08:42:54;;;;;;;;;0.00;0.00;;;;;18.62;100.00;100443.16;5057529;28;59186;-70
2022/10/15 08:45:43;;;;;;;;;0.33;0.00;;;;;18.62;100.00;100448.50;5058369;28;45491;-72
2022/10/15 08:48:12;;;;;;;;;0.00;0.00;;;;;18.64;100.00;100451.13;5040400;28;45585;-72
2022/10/15 08:50:53;;;;;;;;;0.00;0.00;;;;;18.67;100.00;100451.91;5039451;28;45586;-72
2022/10/15 08:53:21;;;;;;;;;0.00;0.00;;;;;18.70;100.00;100454.56;5055936;28;46510;-71
2022/10/15 08:55:54;;;;;;;;;0.00;0.00;;;;;18.73;100.00;100454.44;5048411;28;45263;-71
2022/10/15 08:58:50;;;;;;;;;0.00;0.00;;;;;18.78;100.00;100454.31;5057942;28;45357;-71
2022/10/15 09:01:31;;;;;;;;;0.00;0.00;;;;;18.80;100.00;100453.38;5038852;28;45353;-71
2022/10/15 09:04:06;;;;;;;;;0.00;0.00;;;;;18.88;100.00;100465.63;5039138;28;45775;-72
2022/10/15 09:06:36;;;;;;;;;0.33;0.00;;;;;18.97;100.00;100457.34;5056919;28;45325;-73
2022/10/15 09:09:13;;;;;;;;;0.00;0.00;;;;;19.07;100.00;100458.84;5036246;28;45512;-72
2022/10/15 09:12:00;;;;;;;;;0.00;0.00;;;;;19.13;100.00;100473.84;5052785;28;45506;-72
2022/10/15 09:14:29;;;;;;;;;0.00;0.00;;;;;19.15;100.00;100464.81;5026724;28;47603;-73
2022/10/15 09:16:54;;;;;;;;;0.67;0.00;;;;;19.22;100.00;100473.53;5039055;28;45404;-72
2022/10/15 09:19:21;;;;;;;;;0.00;0.00;;;;;19.27;100.00;100464.44;5038453;28;45447;-72
2022/10/15 09:21:48;;;;;;;;;0.67;0.00;;;;;19.36;100.00;100469.50;5028487;28;45508;-73
2022/10/15 09:24:21;;;;;;;;;0.00;0.00;;;;;19.48;100.00;100470.06;5036776;28;47836;-72
2022/10/15 09:27:10;;;;;;;;;0.00;0.00;;;;;19.54;100.00;100485.91;5036600;28;45332;-72
2022/10/15 09:29:45;;;;;;;;;0.00;0.00;;;;;19.54;100.00;100500.19;5024821;28;45613;-72
2022/10/15 09:32:18;;;;;;;;;0.00;0.00;;;;;19.55;100.00;100495.75;5015720;28;45957;-72
2022/10/15 09:34:46;;;;;;;;;0.00;0.00;;;;;19.57;100.00;100493.88;5034907;28;47470;-72
2022/10/15 09:37:26;;;;;;;;;0.00;0.00;;;;;19.58;100.00;100493.81;5031742;28;45598;-73
2022/10/15 09:40:07;;;;;;;;;0.00;0.00;;;;;19.56;100.00;100489.44;5041222;28;45459;-72
2022/10/15 09:42:38;;;;;;;;;0.00;0.00;;;;;19.54;100.00;100492.16;5043732;28;46350;-73
2022/10/15 09:45:14;;;;;;;;;0.67;0.00;;;;;19.55;100.00;100496.63;5038435;28;46235;-72
2022/10/15 09:47:41;;;;;;;;;0.00;0.00;;;;;19.56;100.00;100495.69;5036726;28;45305;-73
2022/10/15 09:50:12;;;;;;;;;1.00;0.00;;;;;19.59;100.00;100510.78;5043724;28;45373;-73
2022/10/15 09:53:16;;;;;;;;;0.00;0.00;;;;;19.65;100.00;100505.25;5037916;28;45590;-73
2022/10/15 09:55:48;;;;;;;;;0.00;0.00;;;;;19.65;100.00;100507.91;5043259;28;47504;-73
2022/10/15 09:58:15;;;;;;;;;0.33;0.00;;;;;19.62;100.00;100513.38;5018975;28;45488;-73
2022/10/15 10:00:50;;;;;;;;;0.00;0.00;;;;;19.59;100.00;100535.78;5034523;28;45581;-73
2022/10/15 10:03:15;;;;;;;;;0.00;0.00;;;;;19.55;100.00;100543.94;5036665;28;45483;-73
2022/10/15 10:05:40;;;;;;;;;0.00;0.00;;;;;19.58;100.00;100546.50;5035294;28;52379;-73
2022/10/15 10:08:17;;;;;;;;;0.00;0.00;;;;;19.67;100.00;100553.44;5038407;28;45376;-73
2022/10/15 10:10:43;;;;;;;;;0.00;0.00;;;;;19.74;100.00;100566.56;5040071;28;45460;-73
2022/10/15 10:13:25;;;;;;;;;0.00;0.00;;;;;19.80;100.00;100563.69;5024402;28;47817;-73
2022/10/15 10:15:52;;;;;;;;;0.00;0.00;;;;;19.77;100.00;100557.59;5035751;28;46599;-72
2022/10/15 10:18:22;;;;;;;;;0.00;0.00;;;;;19.77;100.00;100566.50;5026361;28;45339;-73
2022/10/15 10:20:58;;;;;;;;;0.00;0.00;;;;;19.82;100.00;100561.88;5050257;28;45410;-72
2022/10/15 10:23:30;;;;;;;;;1.00;0.00;;;;;19.88;100.00;100558.13;5043173;28;46237;-73
2022/10/15 10:25:57;;;;;;;;;0.00;0.00;;;;;19.86;100.00;100560.81;5055671;28;47885;-73
2022/10/15 10:28:45;;;;;;;;;0.00;0.00;;;;;19.86;100.00;100565.31;5053947;28;45463;-73
2022/10/15 10:31:11;;;;;;;;;0.00;0.00;;;;;19.85;100.00;100567.13;5048099;28;45531;-73
2022/10/15 10:33:43;;;;;;;;;0.00;0.00;;;;;19.90;100.00;100566.97;5049521;28;45493;-73
2022/10/15 10:36:25;;;;;;;;;0.00;0.00;;;;;19.91;100.00;100563.38;5038679;28;46019;-73
2022/10/15 10:39:01;;;;;;;;;0.00;0.00;;;;;19.93;100.00;100576.72;5037614;28;45450;-72
2022/10/15 10:41:46;;;;;;;;;0.00;0.00;;;;;19.99;100.00;100577.41;5024544;28;45431;-72
2022/10/15 10:44:31;;;;;;;;;0.00;0.00;;;;;20.00;100.00;100573.78;5024359;28;46200;-72
2022/10/15 10:47:00;;;;;;;;;0.00;0.00;;;;;20.03;100.00;100559.44;5053972;28;47458;-73
2022/10/15 10:49:33;;;;;;;;;0.00;0.00;;;;;20.01;100.00;100570.19;5054655;28;45447;-72
2022/10/15 10:51:59;;;;;;;;;0.00;0.00;;;;;20.10;100.00;100577.06;5055531;28;45507;-73
2022/10/15 10:54:26;;;;;;;;;0.00;0.00;;;;;20.04;100.00;100593.34;5028710;28;57814;-72
2022/10/15 10:56:52;;;;;;;;;0.00;0.00;;;;;19.94;100.00;100594.56;5023274;28;46575;-72
2022/10/15 10:59:19;;;;;;;;;0.00;0.00;;;;;19.78;100.00;100592.34;5035542;28;45377;-72
2022/10/15 11:01:44;;;;;;;;;2.67;2.67;;;;;19.65;100.00;100598.13;5046098;28;45498;-72
2022/10/15 11:04:29;;;;;;;;;2.00;0.67;;;;;19.57;100.00;100601.88;5033366;28;45608;-71
2022/10/15 11:06:55;;;;;;;;;0.67;0.67;;;;;19.50;100.00;100612.84;5037362;28;45485;-73
2022/10/15 11:09:45;;;;;;;;;0.00;0.00;;;;;19.45;100.00;100607.59;5045912;28;45440;-72
2022/10/15 11:12:32;;;;;;;;;0.00;0.00;;;;;19.37;100.00;100612.28;5037556;28;45436;-72
2022/10/15 11:15:22;;;;;;;;;0.00;0.00;;;;;19.26;100.00;100604.56;5028933;28;45518;-73
2022/10/15 11:18:11;;;;;;;;;0.00;0.00;;;;;19.15;100.00;100604.00;5040750;28;46864;-73
2022/10/15 11:20:49;;;;;;;;;0.00;0.00;;;;;19.17;100.00;100596.78;5036352;28;45623;-72
2022/10/15 11:23:44;;;;;;;;;0.33;0.00;;;;;19.28;100.00;100610.78;5030721;28;45645;-72
2022/10/15 11:26:30;;;;;;;;;0.00;0.00;;;;;19.37;100.00;100602.47;5045831;28;45624;-72